createdAt,value
2022-09-30T00:01:02.504Z,1008.23
2022-09-30T00:03:29.285Z,1008.19
2022-09-30T00:05:57.515Z,1008.24
2022-09-30T00:08:24.589Z,1008.28
2022-09-30T00:11:00.306Z,1008.19
2022-09-30T00:13:27.519Z,1008.22
2022-09-30T00:15:54.642Z,1008.35
2022-09-30T00:18:22.850Z,1008.24
2022-09-30T00:20:49.820Z,1008.29
2022-09-30T00:23:16.602Z,1008.31
2022-09-30T00:25:44.691Z,1008.30
2022-09-30T00:28:11.686Z,1008.40
2022-09-30T00:30:38.639Z,1008.44
2022-09-30T00:33:05.665Z,1008.42
2022-09-30T00:35:37.331Z,1008.47
2022-09-30T00:38:04.144Z,1008.35
2022-09-30T00:40:31.677Z,1008.36
2022-09-30T00:42:58.473Z,1008.30
2022-09-30T00:45:26.943Z,1008.23
2022-09-30T00:47:55.026Z,1008.14
2022-09-30T00:50:49.516Z,1008.24
2022-09-30T00:53:21.102Z,1008.27
2022-09-30T00:55:58.743Z,1008.26
2022-09-30T00:58:31.786Z,1008.32
2022-09-30T01:01:01.422Z,1008.28
2022-09-30T01:03:32.094Z,1008.16
2022-09-30T01:06:03.097Z,1008.31
2022-09-30T01:08:32.371Z,1008.30
2022-09-30T01:11:01.545Z,1008.29
2022-09-30T01:13:36.282Z,1008.20
2022-09-30T01:16:23.883Z,1008.13
2022-09-30T01:19:05.944Z,1008.09
2022-09-30T01:21:56.446Z,1008.08
2022-09-30T01:24:47.760Z,1008.12
2022-09-30T01:27:46.233Z,1007.99
2022-09-30T01:30:19.439Z,1008.06
2022-09-30T01:33:07.575Z,1008.19
2022-09-30T01:35:59.078Z,1008.26
2022-09-30T01:38:29.689Z,1008.25
2022-09-30T01:41:06.802Z,1008.25
2022-09-30T01:43:44.048Z,1008.43
2022-09-30T01:46:21.442Z,1008.48
2022-09-30T01:48:53.453Z,1008.55
2022-09-30T01:51:29.690Z,1008.49
2022-09-30T01:54:01.980Z,1008.56
2022-09-30T01:56:37.170Z,1008.61
2022-09-30T01:59:07.874Z,1008.69
2022-09-30T02:01:44.632Z,1008.60
2022-09-30T02:04:17.139Z,1008.62
2022-09-30T02:06:49.983Z,1008.67
2022-09-30T02:09:21.559Z,1008.61
2022-09-30T02:11:48.495Z,1008.65
2022-09-30T02:14:20.427Z,1008.70
2022-09-30T02:16:50.587Z,1008.71
2022-09-30T02:19:24.855Z,1008.74
2022-09-30T02:21:57.787Z,1008.66
2022-09-30T02:24:27.209Z,1008.67
2022-09-30T02:26:58.852Z,1008.64
2022-09-30T02:29:30.977Z,1008.74
2022-09-30T02:32:03.144Z,1008.69
2022-09-30T02:34:38.366Z,1008.82
2022-09-30T02:37:11.372Z,1008.76
2022-09-30T02:39:41.970Z,1008.69
2022-09-30T02:42:15.158Z,1008.81
2022-09-30T02:44:42.413Z,1008.82
2022-09-30T02:47:16.373Z,1008.89
2022-09-30T02:49:52.224Z,1008.85
2022-09-30T02:52:28.135Z,1008.95
2022-09-30T02:55:10.038Z,1009.01
2022-09-30T02:57:46.070Z,1009.09
2022-09-30T03:00:13.299Z,1009.06
2022-09-30T03:02:40.538Z,1008.95
2022-09-30T03:05:09.677Z,1008.98
2022-09-30T03:07:36.935Z,1009.00
2022-09-30T03:10:13.709Z,1009.03
2022-09-30T03:12:55.524Z,1009.13
2022-09-30T03:15:30.949Z,1009.22
2022-09-30T03:18:19.117Z,1009.30
2022-09-30T03:21:02.189Z,1009.33
2022-09-30T03:24:04.712Z,1009.38
2022-09-30T03:26:40.012Z,1009.51
2022-09-30T03:29:16.571Z,1009.48
2022-09-30T03:32:07.171Z,1009.55
2022-09-30T03:34:43.407Z,1009.54
2022-09-30T03:37:20.358Z,1009.58
2022-09-30T03:39:55.320Z,1009.70
2022-09-30T03:42:25.666Z,1009.71
2022-09-30T03:45:01.382Z,1009.67
2022-09-30T03:47:31.545Z,1009.62
2022-09-30T03:50:02.806Z,1009.72
2022-09-30T03:52:33.365Z,1009.80
2022-09-30T03:55:04.032Z,1009.78
2022-09-30T03:57:31.358Z,1009.82
2022-09-30T03:59:59.193Z,1009.87
2022-09-30T04:02:27.307Z,1009.85
2022-09-30T04:04:54.183Z,1009.93
2022-09-30T04:07:24.086Z,1010.02
2022-09-30T04:09:52.226Z,1009.98
2022-09-30T04:12:23.397Z,1009.95
2022-09-30T04:14:50.387Z,1009.98
2022-09-30T04:17:17.308Z,1009.96
2022-09-30T04:19:44.287Z,1009.98
2022-09-30T04:22:13.024Z,1010.05
2022-09-30T04:24:39.860Z,1010.12
2022-09-30T04:27:08.357Z,1010.16
2022-09-30T04:29:35.186Z,1010.17
2022-09-30T04:32:02.327Z,1010.16
2022-09-30T04:34:29.484Z,1010.09
2022-09-30T04:36:56.222Z,1010.18
2022-09-30T04:39:23.208Z,1010.15
2022-09-30T04:41:50.122Z,1010.23
2022-09-30T04:44:19.817Z,1010.19
2022-09-30T04:46:46.822Z,1010.22
2022-09-30T04:49:16.048Z,1010.36
2022-09-30T04:51:42.798Z,1010.36
2022-09-30T04:54:14.380Z,1010.43
2022-09-30T04:56:41.606Z,1010.50
2022-09-30T04:59:10.527Z,1010.59
2022-09-30T05:01:45.055Z,1010.55
2022-09-30T05:04:11.961Z,1010.50
2022-09-30T05:06:39.019Z,1010.65
2022-09-30T05:09:06.106Z,1010.61
2022-09-30T05:11:34.330Z,1010.62
2022-09-30T05:14:01.363Z,1010.79
2022-09-30T05:16:28.236Z,1010.82
2022-09-30T05:18:58.832Z,1010.84
2022-09-30T05:21:25.563Z,1010.84
2022-09-30T05:23:53.946Z,1010.84
2022-09-30T05:26:20.694Z,1010.74
2022-09-30T05:28:48.669Z,1010.87
2022-09-30T05:31:16.713Z,1010.82
2022-09-30T05:33:46.847Z,1010.85
2022-09-30T05:36:16.522Z,1010.89
2022-09-30T05:38:49.628Z,1010.98
2022-09-30T05:41:16.676Z,1010.98
2022-09-30T05:43:43.984Z,1011.10
2022-09-30T05:46:11.864Z,1011.08
2022-09-30T05:48:38.647Z,1011.13
2022-09-30T05:51:07.012Z,1011.17
2022-09-30T05:53:36.632Z,1011.23
2022-09-30T05:56:03.664Z,1011.13
2022-09-30T05:58:30.435Z,1011.20
2022-09-30T06:01:06.922Z,1011.16
2022-09-30T06:03:36.960Z,1011.25
2022-09-30T06:06:06.149Z,1011.33
2022-09-30T06:08:33.227Z,1011.35
2022-09-30T06:11:02.097Z,1011.41
2022-09-30T06:13:29.109Z,1011.37
2022-09-30T06:15:57.225Z,1011.43
2022-09-30T06:18:25.525Z,1011.31
2022-09-30T06:20:52.933Z,1011.25
2022-09-30T06:23:20.123Z,1011.21
2022-09-30T06:25:51.253Z,1011.32
2022-09-30T06:28:22.609Z,1011.45
2022-09-30T06:30:51.869Z,1011.40
2022-09-30T06:33:19.059Z,1011.41
2022-09-30T06:35:46.574Z,1011.47
2022-09-30T06:38:15.869Z,1011.44
2022-09-30T06:40:43.500Z,1011.39
2022-09-30T06:43:10.839Z,1011.36
2022-09-30T06:45:39.413Z,1011.25
2022-09-30T06:48:07.726Z,1011.25
2022-09-30T06:50:34.798Z,1011.27
2022-09-30T06:53:04.136Z,1011.20
2022-09-30T06:55:33.414Z,1011.27
2022-09-30T06:58:00.192Z,1011.19
2022-09-30T07:00:29.363Z,1011.18
2022-09-30T07:02:57.727Z,1011.22
2022-09-30T07:05:25.101Z,1011.16
2022-09-30T07:07:53.456Z,1011.06
2022-09-30T07:10:20.591Z,1011.15
2022-09-30T07:12:53.112Z,1011.18
2022-09-30T07:15:20.461Z,1011.29
2022-09-30T07:17:52.307Z,1011.41
2022-09-30T07:20:20.513Z,1011.47
2022-09-30T07:22:47.528Z,1011.38
2022-09-30T07:25:15.124Z,1011.35
2022-09-30T07:27:42.218Z,1011.50
2022-09-30T07:30:15.128Z,1011.45
2022-09-30T07:32:48.094Z,1011.42
2022-09-30T07:35:14.971Z,1011.33
2022-09-30T07:37:47.794Z,1011.33
2022-09-30T07:40:22.263Z,1011.19
2022-09-30T07:42:49.291Z,1011.13
2022-09-30T07:45:16.342Z,1011.14
2022-09-30T07:47:43.568Z,1011.01
2022-09-30T07:50:10.366Z,1010.98
2022-09-30T07:52:37.545Z,1011.02
2022-09-30T07:55:06.603Z,1011.06
2022-09-30T07:57:37.504Z,1011.16
2022-09-30T08:00:17.331Z,1011.18
2022-09-30T08:02:55.830Z,1011.23
2022-09-30T08:05:22.851Z,1011.27
2022-09-30T08:07:51.193Z,1011.26
2022-09-30T08:12:47.203Z,1011.38
2022-09-30T08:15:14.389Z,1011.40
2022-09-30T08:17:41.396Z,1011.39
2022-09-30T08:20:13.397Z,1011.49
2022-09-30T08:22:41.919Z,1011.67
2022-09-30T08:25:09.046Z,1011.71
2022-09-30T08:27:37.477Z,1011.85
2022-09-30T08:30:09.839Z,1011.88
2022-09-30T08:32:36.849Z,1011.98
2022-09-30T08:35:07.050Z,1011.91
2022-09-30T08:37:36.161Z,1011.99
2022-09-30T08:40:04.742Z,1011.94
2022-09-30T08:42:51.651Z,1011.79
2022-09-30T08:45:32.683Z,1011.72
2022-09-30T08:48:12.639Z,1011.83
2022-09-30T08:50:51.878Z,1011.76
2022-09-30T08:53:27.400Z,1011.91
2022-09-30T08:55:55.847Z,1011.87
2022-09-30T08:58:28.491Z,1011.96
2022-09-30T09:01:00.155Z,1012.09
2022-09-30T09:03:33.923Z,1012.07
2022-09-30T09:06:18.437Z,1012.01
2022-09-30T09:09:13.988Z,1012.09
2022-09-30T09:11:58.165Z,1011.99
2022-09-30T09:14:48.997Z,1011.82
2022-09-30T09:17:32.101Z,1011.75
2022-09-30T09:20:03.898Z,1011.75
2022-09-30T09:22:32.231Z,1011.68
2022-09-30T09:25:02.215Z,1011.77
2022-09-30T09:27:43.972Z,1011.86
2022-09-30T09:30:15.641Z,1011.86
2022-09-30T09:32:47.682Z,1011.85
2022-09-30T09:35:19.597Z,1011.88
2022-09-30T09:37:55.593Z,1011.94
2022-09-30T09:40:32.525Z,1012.02
2022-09-30T09:43:12.395Z,1012.12
2022-09-30T09:45:52.892Z,1012.10
2022-09-30T09:48:21.067Z,1012.05
2022-09-30T09:51:01.894Z,1012.07
2022-09-30T09:53:44.757Z,1011.97
2022-09-30T09:56:16.132Z,1012.06
2022-09-30T09:59:13.618Z,1012.04
2022-09-30T10:01:45.321Z,1012.03
2022-09-30T10:04:16.180Z,1011.95
2022-09-30T10:06:52.665Z,1012.01
2022-09-30T10:09:25.750Z,1012.06
2022-09-30T10:12:12.941Z,1011.92
2022-09-30T10:14:42.179Z,1012.04
2022-09-30T10:17:21.789Z,1012.04
2022-09-30T10:19:52.376Z,1011.96
2022-09-30T10:22:26.945Z,1011.88
2022-09-30T10:25:10.219Z,1011.83
2022-09-30T10:27:38.376Z,1011.61
2022-09-30T10:30:07.646Z,1011.48
2022-09-30T10:32:37.225Z,1011.47
2022-09-30T10:35:19.544Z,1011.37
2022-09-30T10:37:51.657Z,1011.40
2022-09-30T10:40:19.723Z,1011.56
2022-09-30T10:42:48.170Z,1011.62
2022-09-30T10:45:20.202Z,1011.61
2022-09-30T10:47:51.411Z,1011.68
2022-09-30T10:50:22.087Z,1011.84
2022-09-30T10:52:54.649Z,1011.96
2022-09-30T10:55:32.422Z,1012.10
2022-09-30T10:58:21.446Z,1012.19
2022-09-30T11:00:55.018Z,1012.40
2022-09-30T11:03:30.909Z,1012.38
2022-09-30T11:06:00.051Z,1012.35
2022-09-30T11:08:33.417Z,1012.45
2022-09-30T11:11:10.503Z,1012.52
2022-09-30T11:13:43.030Z,1012.77
2022-09-30T11:16:19.930Z,1012.73
2022-09-30T11:18:53.114Z,1012.73
2022-09-30T11:21:26.588Z,1012.82
2022-09-30T11:24:01.793Z,1012.96
2022-09-30T11:26:34.378Z,1012.90
2022-09-30T11:29:21.816Z,1012.94
2022-09-30T11:31:59.114Z,1013.05
2022-09-30T11:34:43.871Z,1013.05
2022-09-30T11:37:24.922Z,1013.00
2022-09-30T11:40:10.224Z,1013.07
2022-09-30T11:42:46.857Z,1013.01
2022-09-30T11:45:31.310Z,1012.93
2022-09-30T11:48:19.266Z,1012.95
2022-09-30T11:51:00.151Z,1012.92
2022-09-30T11:53:36.787Z,1012.84
2022-09-30T11:56:26.896Z,1012.86
2022-09-30T11:58:58.764Z,1012.88
2022-09-30T12:01:32.905Z,1012.82
2022-09-30T12:04:04.215Z,1012.85
2022-09-30T12:06:49.158Z,1012.89
2022-09-30T12:15:20.465Z,1012.89
2022-09-30T12:17:57.922Z,1012.89
2022-09-30T12:20:33.677Z,1012.92
2022-09-30T12:23:19.870Z,1012.88
2022-09-30T12:25:54.937Z,1012.85
2022-09-30T12:28:32.383Z,1012.79
2022-09-30T12:31:26.403Z,1012.71
2022-09-30T12:34:10.138Z,1012.79
2022-09-30T12:36:53.788Z,1012.81
2022-09-30T12:40:03.118Z,1012.83
2022-09-30T12:42:59.577Z,1012.84
2022-09-30T12:46:19.680Z,1012.92
2022-09-30T12:48:51.251Z,1013.02
2022-09-30T12:51:25.283Z,1013.03
2022-09-30T12:53:59.100Z,1013.11
2022-09-30T12:56:32.443Z,1013.11
2022-09-30T12:59:01.610Z,1013.13
2022-09-30T13:01:30.954Z,1013.20
2022-09-30T13:04:17.500Z,1013.08
2022-09-30T13:07:15.897Z,1012.95
2022-09-30T13:10:21.430Z,1013.10
2022-09-30T13:13:16.588Z,1013.16
2022-09-30T13:15:46.128Z,1013.16
2022-09-30T13:18:51.145Z,1013.22
2022-09-30T13:21:21.797Z,1013.27
2022-09-30T13:23:49.986Z,1013.24
2022-09-30T13:26:37.175Z,1013.25
2022-09-30T13:29:37.020Z,1013.24
2022-09-30T13:32:09.905Z,1013.19
2022-09-30T13:34:58.362Z,1013.23
2022-09-30T13:37:39.690Z,1013.31
2022-09-30T13:40:37.511Z,1013.30
2022-09-30T13:43:19.713Z,1013.41
2022-09-30T13:45:49.752Z,1013.36
2022-09-30T13:48:25.876Z,1013.42
2022-09-30T13:50:56.955Z,1013.42
2022-09-30T13:53:33.003Z,1013.49
2022-09-30T13:56:06.506Z,1013.51
2022-09-30T13:59:18.043Z,1013.58
2022-09-30T14:02:06.698Z,1013.78
2022-09-30T14:05:05.083Z,1013.81
2022-09-30T14:07:46.325Z,1013.81
2022-09-30T14:10:46.134Z,1013.87
2022-09-30T14:13:24.854Z,1013.84
2022-09-30T14:16:37.117Z,1013.89
2022-09-30T14:19:33.455Z,1013.92
2022-09-30T14:22:06.450Z,1013.80
2022-09-30T14:24:37.896Z,1013.82
2022-09-30T14:27:29.917Z,1013.90
2022-09-30T14:30:05.597Z,1013.92
2022-09-30T14:32:39.374Z,1013.86
2022-09-30T14:35:08.903Z,1013.97
2022-09-30T14:37:44.699Z,1014.04
2022-09-30T14:40:16.532Z,1014.06
2022-09-30T14:42:46.079Z,1014.13
2022-09-30T14:45:19.143Z,1014.16
2022-09-30T14:47:49.902Z,1014.18
2022-09-30T14:50:22.785Z,1014.21
2022-09-30T14:52:56.073Z,1014.42
2022-09-30T14:55:26.302Z,1014.30
2022-09-30T14:57:55.370Z,1014.36
2022-09-30T15:00:32.303Z,1014.39
2022-09-30T15:03:00.326Z,1014.46
2022-09-30T15:05:28.401Z,1014.37
2022-09-30T15:07:59.557Z,1014.35
2022-09-30T15:10:26.284Z,1014.48
2022-09-30T15:12:55.783Z,1014.53
2022-09-30T15:15:27.475Z,1014.57
2022-09-30T15:17:54.562Z,1014.53
2022-09-30T15:20:29.947Z,1014.52
2022-09-30T15:23:01.565Z,1014.54
2022-09-30T15:25:29.655Z,1014.67
2022-09-30T15:27:57.958Z,1014.69
2022-09-30T15:30:27.000Z,1014.78
2022-09-30T15:33:00.227Z,1014.70
2022-09-30T15:35:28.200Z,1014.82
2022-09-30T15:38:08.530Z,1014.99
2022-09-30T15:40:37.176Z,1015.03
2022-09-30T15:43:11.750Z,1015.08
2022-09-30T15:45:41.089Z,1015.13
2022-09-30T15:48:33.377Z,1015.13
2022-09-30T15:51:22.754Z,1015.20
2022-09-30T15:53:51.430Z,1015.35
2022-09-30T15:56:26.034Z,1015.36
2022-09-30T15:58:57.297Z,1015.52
2022-09-30T16:01:25.253Z,1015.46
2022-09-30T16:03:55.497Z,1015.50
2022-09-30T16:06:25.894Z,1015.62
2022-09-30T16:08:57.573Z,1015.56
2022-09-30T16:11:31.763Z,1015.61
2022-09-30T16:14:00.263Z,1015.65
2022-09-30T16:16:31.603Z,1015.55
2022-09-30T16:18:59.926Z,1015.72
2022-09-30T16:21:39.526Z,1015.70
2022-09-30T16:24:49.815Z,1015.74
2022-09-30T16:27:31.005Z,1015.74
2022-09-30T16:29:58.828Z,1015.79
2022-09-30T16:32:27.816Z,1015.81
2022-09-30T16:34:55.147Z,1015.78
2022-09-30T16:37:22.299Z,1015.76
2022-09-30T16:39:50.919Z,1015.85
2022-09-30T16:42:19.155Z,1015.84
2022-09-30T16:44:47.229Z,1015.89
2022-09-30T16:47:15.977Z,1015.92
2022-09-30T16:49:44.916Z,1015.89
2022-09-30T16:52:12.253Z,1015.95
2022-09-30T16:54:40.049Z,1015.96
2022-09-30T16:57:13.774Z,1016.04
2022-09-30T16:59:41.758Z,1016.02
2022-09-30T17:02:13.681Z,1016.02
2022-09-30T17:04:43.282Z,1016.08
2022-09-30T17:07:14.792Z,1016.16
2022-09-30T17:09:44.225Z,1016.13
2022-09-30T17:12:12.904Z,1016.21
2022-09-30T17:14:40.251Z,1016.22
2022-09-30T17:17:13.080Z,1016.14
2022-09-30T17:19:40.697Z,1016.18
2022-09-30T17:22:07.675Z,1016.21
2022-09-30T17:24:34.438Z,1016.30
2022-09-30T17:27:01.173Z,1016.25
2022-09-30T17:29:32.701Z,1016.21
2022-09-30T17:32:00.278Z,1016.30
2022-09-30T17:34:30.338Z,1016.22
2022-09-30T17:36:57.198Z,1016.23
2022-09-30T17:39:25.877Z,1016.17
2022-09-30T17:41:52.601Z,1016.25
2022-09-30T17:44:20.607Z,1016.28
2022-09-30T17:46:48.798Z,1016.35
2022-09-30T17:49:23.428Z,1016.35
2022-09-30T17:51:51.358Z,1016.41
2022-09-30T17:54:18.261Z,1016.35
2022-09-30T17:56:44.978Z,1016.36
2022-09-30T17:59:11.842Z,1016.34
2022-09-30T18:01:38.692Z,1016.47
2022-09-30T18:04:08.288Z,1016.51
2022-09-30T18:06:35.097Z,1016.54
2022-09-30T18:09:01.931Z,1016.49
2022-09-30T18:11:28.995Z,1016.43
2022-09-30T18:13:57.462Z,1016.52
2022-09-30T18:16:25.522Z,1016.46
2022-09-30T18:18:52.330Z,1016.38
2022-09-30T18:21:20.692Z,1016.44
2022-09-30T18:23:47.425Z,1016.50
2022-09-30T18:26:18.904Z,1016.65
2022-09-30T18:28:45.791Z,1016.72
2022-09-30T18:31:13.874Z,1016.77
2022-09-30T18:33:42.216Z,1016.70
2022-09-30T18:36:11.083Z,1016.66
2022-09-30T18:38:39.201Z,1016.69
2022-09-30T18:41:09.500Z,1016.76
2022-09-30T18:43:36.222Z,1016.70
2022-09-30T18:46:06.239Z,1016.72
2022-09-30T18:48:33.038Z,1016.64
2022-09-30T18:51:03.501Z,1016.70
2022-09-30T18:53:34.321Z,1016.71
2022-09-30T18:56:04.389Z,1016.74
2022-09-30T18:58:31.205Z,1016.84
2022-09-30T19:01:01.130Z,1016.79
2022-09-30T19:03:28.960Z,1016.73
2022-09-30T19:05:55.835Z,1016.85
2022-09-30T19:08:22.848Z,1016.81
2022-09-30T19:10:50.942Z,1016.76
2022-09-30T19:13:20.307Z,1016.88
2022-09-30T19:15:47.158Z,1016.94
2022-09-30T19:18:16.061Z,1016.91
2022-09-30T19:20:42.775Z,1017.00
2022-09-30T19:23:11.750Z,1017.00
2022-09-30T19:25:38.482Z,1016.94
2022-09-30T19:28:05.627Z,1016.87
2022-09-30T19:30:37.846Z,1016.91
2022-09-30T19:33:04.758Z,1016.85
2022-09-30T19:35:39.975Z,1016.86
2022-09-30T19:38:07.623Z,1016.99
2022-09-30T19:43:06.345Z,1017.05
2022-09-30T19:45:33.156Z,1017.01
2022-09-30T19:48:01.628Z,1016.90
2022-09-30T19:50:29.634Z,1016.97
2022-09-30T19:52:57.776Z,1016.87
2022-09-30T19:55:27.119Z,1016.91
2022-09-30T19:57:55.194Z,1016.88
2022-09-30T20:00:22.017Z,1016.90
2022-09-30T20:02:48.732Z,1016.77
2022-09-30T20:05:17.046Z,1016.79
2022-09-30T20:07:44.124Z,1016.71
2022-09-30T20:10:12.696Z,1016.73
2022-09-30T20:12:39.424Z,1016.78
2022-09-30T20:15:06.785Z,1016.71
2022-09-30T20:17:33.677Z,1016.81
2022-09-30T20:20:01.769Z,1016.85
2022-09-30T20:22:29.921Z,1016.92
2022-09-30T20:24:57.245Z,1016.95
2022-09-30T20:27:24.211Z,1016.95
2022-09-30T20:29:51.024Z,1017.09
2022-09-30T20:32:17.830Z,1017.13
2022-09-30T20:34:45.670Z,1017.02
2022-09-30T20:37:12.637Z,1016.98
2022-09-30T20:39:40.882Z,1017.01
2022-09-30T20:42:08.858Z,1017.16
2022-09-30T20:44:35.576Z,1017.14
2022-09-30T20:47:04.584Z,1017.17
2022-09-30T20:49:31.465Z,1017.17
2022-09-30T20:51:58.396Z,1017.14
2022-09-30T20:54:25.135Z,1017.18
2022-09-30T20:57:09.163Z,1017.18
2022-09-30T20:59:36.052Z,1017.08
2022-09-30T21:02:04.108Z,1017.01
2022-09-30T21:04:30.927Z,1017.03
2022-09-30T21:06:59.507Z,1016.99
2022-09-30T21:09:26.341Z,1016.99
2022-09-30T21:11:55.940Z,1016.94
2022-09-30T21:14:22.735Z,1016.98
2022-09-30T21:16:49.871Z,1017.00
2022-09-30T21:19:16.780Z,1017.20
2022-09-30T21:21:43.515Z,1017.12
2022-09-30T21:24:10.574Z,1017.22
2022-09-30T21:26:37.348Z,1017.10
2022-09-30T21:29:06.792Z,1017.10
2022-09-30T21:31:33.818Z,1017.18
2022-09-30T21:34:03.139Z,1017.07
2022-09-30T21:36:31.042Z,1017.13
2022-09-30T21:39:01.231Z,1017.14
2022-09-30T21:41:28.361Z,1017.16
2022-09-30T21:43:57.809Z,1017.21
2022-09-30T21:46:26.590Z,1017.26
2022-09-30T21:49:03.950Z,1017.30
2022-09-30T21:51:33.196Z,1017.22
2022-09-30T21:54:00.909Z,1017.38
2022-09-30T21:56:28.511Z,1017.22
2022-09-30T21:58:55.946Z,1017.16
2022-09-30T22:01:23.021Z,1017.06
2022-09-30T22:03:51.342Z,1016.92
2022-09-30T22:06:18.116Z,1016.86
2022-09-30T22:08:46.049Z,1016.91
2022-09-30T22:11:15.756Z,1016.85
2022-09-30T22:13:43.587Z,1016.91
2022-09-30T22:16:11.991Z,1016.85
2022-09-30T22:18:38.765Z,1016.84
2022-09-30T22:21:17.311Z,1016.94
2022-09-30T22:23:46.160Z,1016.91
2022-09-30T22:26:16.221Z,1017.03
2022-09-30T22:28:44.010Z,1017.01
2022-09-30T22:31:13.773Z,1016.98
2022-09-30T22:33:40.894Z,1016.93
2022-09-30T22:36:10.263Z,1016.99
2022-09-30T22:38:37.066Z,1016.94
2022-09-30T22:41:04.067Z,1016.95
2022-09-30T22:43:32.893Z,1016.94
2022-09-30T22:46:01.699Z,1016.77
2022-09-30T22:48:29.237Z,1016.91
2022-09-30T22:51:00.422Z,1016.88
2022-09-30T22:53:31.337Z,1016.92
2022-09-30T22:56:03.445Z,1016.86
2022-09-30T22:58:30.226Z,1016.94
2022-09-30T23:00:59.585Z,1016.90
2022-09-30T23:03:26.358Z,1016.97
2022-09-30T23:05:59.107Z,1017.02
2022-09-30T23:08:30.098Z,1016.94
2022-09-30T23:10:59.038Z,1016.91
2022-09-30T23:13:31.431Z,1016.88
2022-09-30T23:15:59.188Z,1016.93
2022-09-30T23:18:25.934Z,1017.03
2022-09-30T23:20:56.735Z,1017.09
2022-09-30T23:23:23.885Z,1017.04
2022-09-30T23:26:01.394Z,1016.96
2022-09-30T23:28:28.533Z,1016.95
2022-09-30T23:30:56.356Z,1017.00
2022-09-30T23:33:23.230Z,1017.03
2022-09-30T23:35:50.157Z,1016.89
2022-09-30T23:38:21.126Z,1016.94
2022-09-30T23:40:48.678Z,1016.87
2022-09-30T23:43:17.267Z,1016.83
2022-09-30T23:45:44.062Z,1016.94
2022-09-30T23:48:11.140Z,1016.99
2022-09-30T23:50:39.219Z,1017.01
2022-09-30T23:53:07.170Z,1017.13
2022-09-30T23:55:33.931Z,1017.08
2022-09-30T23:58:00.878Z,1017.05
